createdAt,value
2022-11-05T00:05:14.373Z,9.99
2022-11-05T00:10:28.164Z,9.99
2022-11-05T00:15:48.519Z,9.97
2022-11-05T00:20:50.616Z,9.94
2022-11-05T00:26:04.203Z,9.95
2022-11-05T00:31:11.718Z,9.94
2022-11-05T00:36:13.678Z,9.93
2022-11-05T00:41:15.564Z,9.92
2022-11-05T00:46:17.637Z,9.92
2022-11-05T00:51:19.511Z,9.93
2022-11-05T00:56:21.329Z,9.93
2022-11-05T01:01:24.100Z,9.91
2022-11-05T01:06:26.060Z,9.92
2022-11-05T01:11:34.003Z,9.94
2022-11-05T01:16:36.504Z,9.99
2022-11-05T01:21:38.524Z,9.98
2022-11-05T01:26:40.443Z,9.99
2022-11-05T01:31:42.524Z,10.01
2022-11-05T01:36:44.546Z,9.99
2022-11-05T01:41:46.437Z,9.98
2022-11-05T01:46:48.501Z,9.96
2022-11-05T01:51:51.469Z,9.96
2022-11-05T01:57:01.420Z,10.00
2022-11-05T02:02:05.172Z,9.97
2022-11-05T02:07:09.768Z,9.91
2022-11-05T02:12:13.708Z,9.88
2022-11-05T02:17:43.632Z,9.86
2022-11-05T02:23:10.168Z,9.84
2022-11-05T02:28:44.921Z,9.82
2022-11-05T02:34:14.492Z,9.81
2022-11-05T02:39:22.454Z,9.79
2022-11-05T02:44:29.707Z,9.81
2022-11-05T02:49:44.214Z,9.83
2022-11-05T02:54:55.522Z,9.86
2022-11-05T03:00:01.667Z,9.85
2022-11-05T03:05:04.712Z,9.85
2022-11-05T03:10:37.592Z,9.84
2022-11-05T03:15:47.815Z,9.87
2022-11-05T03:21:16.485Z,9.90
2022-11-05T03:26:40.610Z,9.91
2022-11-05T03:31:46.870Z,9.93
2022-11-05T03:36:56.307Z,9.95
2022-11-05T03:41:59.989Z,9.95
2022-11-05T03:47:10.081Z,9.95
2022-11-05T03:52:19.932Z,9.98
2022-11-05T03:57:30.196Z,9.98
2022-11-05T04:02:32.471Z,9.96
2022-11-05T04:07:53.198Z,9.95
2022-11-05T04:13:13.690Z,9.94
2022-11-05T04:18:16.181Z,9.93
2022-11-05T04:23:36.378Z,9.92
2022-11-05T04:28:56.711Z,9.94
2022-11-05T04:33:58.481Z,9.94
2022-11-05T04:39:00.381Z,9.95
2022-11-05T04:44:02.509Z,9.96
2022-11-05T04:49:04.376Z,9.95
2022-11-05T04:54:06.232Z,9.96
2022-11-05T04:59:08.022Z,9.96
2022-11-05T05:04:09.823Z,9.96
2022-11-05T05:09:11.671Z,9.96
2022-11-05T05:14:13.649Z,9.94
2022-11-05T05:19:15.649Z,9.94
2022-11-05T05:24:19.833Z,9.93
2022-11-05T05:29:21.671Z,9.94
2022-11-05T05:34:23.562Z,9.92
2022-11-05T05:39:27.048Z,9.94
2022-11-05T05:44:29.090Z,9.95
2022-11-05T05:49:30.943Z,9.95
2022-11-05T05:54:35.997Z,9.93
2022-11-05T05:59:40.645Z,9.94
2022-11-05T06:04:42.904Z,9.93
2022-11-05T06:09:47.260Z,9.91
2022-11-05T06:14:49.218Z,9.91
2022-11-05T06:19:51.033Z,9.91
2022-11-05T06:24:52.933Z,9.92
2022-11-05T06:29:55.787Z,9.92
2022-11-05T06:34:58.024Z,9.90
2022-11-05T06:40:00.710Z,9.88
2022-11-05T06:45:03.867Z,9.88
2022-11-05T06:50:06.380Z,9.89
2022-11-05T06:55:08.645Z,9.88
2022-11-05T07:00:11.733Z,9.90
2022-11-05T07:05:14.948Z,9.90
2022-11-05T07:10:18.719Z,9.91
2022-11-05T07:15:23.674Z,9.93
2022-11-05T07:20:30.724Z,9.99
2022-11-05T07:25:35.810Z,9.98
2022-11-05T07:30:38.612Z,9.94
2022-11-05T07:35:40.953Z,9.90
2022-11-05T07:40:43.126Z,9.89
2022-11-05T07:45:47.748Z,9.92
2022-11-05T07:50:52.172Z,9.94
2022-11-05T07:55:54.066Z,9.98
2022-11-05T08:00:57.987Z,10.04
2022-11-05T08:06:00.056Z,10.11
2022-11-05T08:11:06.912Z,10.09
2022-11-05T08:16:09.766Z,10.12
2022-11-05T08:21:11.826Z,10.16
2022-11-05T08:26:13.849Z,10.20
2022-11-05T08:31:17.940Z,10.21
2022-11-05T08:36:19.864Z,10.21
2022-11-05T08:41:21.711Z,10.21
2022-11-05T08:46:23.833Z,10.25
2022-11-05T08:51:26.106Z,10.26
2022-11-05T08:56:28.143Z,10.28
2022-11-05T09:01:30.214Z,10.30
2022-11-05T09:06:32.330Z,10.37
2022-11-05T09:12:10.705Z,10.44
2022-11-05T09:17:17.188Z,10.50
2022-11-05T09:22:19.067Z,10.52
2022-11-05T09:27:21.040Z,10.55
2022-11-05T09:32:23.504Z,10.61
2022-11-05T09:37:26.952Z,10.66
2022-11-05T09:42:35.613Z,10.73
2022-11-05T09:47:58.392Z,10.80
2022-11-05T09:59:44.949Z,11.07
2022-11-05T10:04:50.166Z,11.14
2022-11-05T10:09:59.986Z,11.32
2022-11-05T10:15:14.881Z,11.43
2022-11-05T10:20:32.614Z,11.36
2022-11-05T10:25:39.640Z,11.18
2022-11-05T10:30:42.291Z,11.11
2022-11-05T10:35:57.847Z,11.16
2022-11-05T10:41:14.866Z,11.27
2022-11-05T10:46:22.981Z,11.43
2022-11-05T10:51:25.444Z,11.59
2022-11-05T10:56:35.005Z,11.64
2022-11-05T11:02:09.294Z,11.67
2022-11-05T11:07:24.479Z,11.59
2022-11-05T11:12:42.773Z,11.42
2022-11-05T11:17:44.671Z,11.34
2022-11-05T11:23:16.419Z,11.28
2022-11-05T11:28:52.394Z,11.29
2022-11-05T11:34:26.048Z,11.31
2022-11-05T11:39:31.162Z,11.40
2022-11-05T11:44:41.298Z,11.46
2022-11-05T11:49:54.699Z,11.49
2022-11-05T11:55:11.722Z,11.44
2022-11-05T12:00:15.513Z,11.32
2022-11-05T12:05:17.715Z,11.21
2022-11-05T12:10:38.898Z,11.14
2022-11-05T12:15:57.877Z,11.09
2022-11-05T12:21:15.378Z,11.07
2022-11-05T12:26:27.930Z,11.01
2022-11-05T12:31:48.735Z,10.98
2022-11-05T12:37:02.714Z,11.02
2022-11-05T12:42:45.923Z,11.14
2022-11-05T12:48:35.829Z,11.34
2022-11-05T12:53:51.248Z,11.52
2022-11-05T12:59:04.543Z,11.54
2022-11-05T13:04:18.353Z,11.46
2022-11-05T13:09:28.127Z,11.45
2022-11-05T13:14:41.929Z,11.41
2022-11-05T13:19:50.320Z,11.39
2022-11-05T13:25:04.610Z,11.37
2022-11-05T13:30:12.979Z,11.38
2022-11-05T13:35:45.753Z,11.41
2022-11-05T13:41:12.968Z,11.43
2022-11-05T13:46:39.487Z,11.44
2022-11-05T13:51:52.333Z,11.48
2022-11-05T13:56:59.899Z,11.51
2022-11-05T14:02:12.122Z,11.53
2022-11-05T14:07:25.789Z,11.49
2022-11-05T14:12:40.100Z,11.44
2022-11-05T14:18:06.468Z,11.36
2022-11-05T14:23:41.302Z,11.25
2022-11-05T14:28:46.113Z,11.18
2022-11-05T14:34:14.344Z,11.14
2022-11-05T14:39:41.407Z,11.11
2022-11-05T14:45:10.085Z,11.06
2022-11-05T14:50:28.079Z,11.00
2022-11-05T14:55:35.115Z,10.95
2022-11-05T15:00:40.744Z,10.84
2022-11-05T15:05:48.664Z,10.74
2022-11-05T15:10:57.489Z,10.65
2022-11-05T15:16:03.990Z,10.55
2022-11-05T15:21:09.774Z,10.46
2022-11-05T15:26:27.849Z,10.37
2022-11-05T15:31:46.453Z,10.30
2022-11-05T15:36:51.567Z,10.25
2022-11-05T15:47:46.356Z,10.14
2022-11-05T15:52:54.718Z,10.06
2022-11-05T15:58:01.678Z,10.03
2022-11-05T16:03:34.131Z,9.96
2022-11-05T16:08:36.339Z,9.90
2022-11-05T16:13:41.254Z,9.83
2022-11-05T16:18:45.284Z,9.79
2022-11-05T16:23:49.771Z,9.70
2022-11-05T16:28:52.128Z,9.65
2022-11-05T16:33:54.827Z,9.58
2022-11-05T16:38:58.023Z,9.52
2022-11-05T16:44:00.384Z,9.48
2022-11-05T16:49:02.685Z,9.44
2022-11-05T16:54:05.671Z,9.41
2022-11-05T16:59:10.577Z,9.37
2022-11-05T17:04:13.770Z,9.35
2022-11-05T17:09:16.283Z,9.33
2022-11-05T17:14:30.236Z,9.34
2022-11-05T17:19:32.985Z,9.35
2022-11-05T17:24:35.051Z,9.33
2022-11-05T17:29:38.326Z,9.31
2022-11-05T17:34:40.532Z,9.28
2022-11-05T17:40:07.937Z,9.24
2022-11-05T17:45:11.815Z,9.22
2022-11-05T17:50:15.883Z,9.19
2022-11-05T17:55:17.789Z,9.17
2022-11-05T18:00:22.957Z,9.11
2022-11-05T18:05:27.841Z,9.07
2022-11-05T18:10:30.124Z,9.04
2022-11-05T18:15:32.274Z,9.00
2022-11-05T18:20:34.298Z,8.96
2022-11-05T18:25:36.534Z,8.92
2022-11-05T18:30:39.610Z,8.89
2022-11-05T18:35:43.243Z,8.88
2022-11-05T18:40:45.325Z,8.88
2022-11-05T18:45:56.258Z,8.87
2022-11-05T18:51:01.824Z,8.85
2022-11-05T18:56:15.942Z,8.86
2022-11-05T19:01:21.449Z,8.81
2022-11-05T19:06:25.828Z,8.79
2022-11-05T19:11:28.150Z,8.77
2022-11-05T19:16:32.574Z,8.75
2022-11-05T19:21:35.815Z,8.74
2022-11-05T19:26:37.892Z,8.72
2022-11-05T19:31:39.853Z,8.73
2022-11-05T19:36:43.001Z,8.70
2022-11-05T19:41:44.884Z,8.69
2022-11-05T19:46:47.887Z,8.67
2022-11-05T19:51:49.746Z,8.63
2022-11-05T19:56:52.032Z,8.60
2022-11-05T20:01:53.945Z,8.58
2022-11-05T20:06:56.009Z,8.57
2022-11-05T20:11:58.137Z,8.54
2022-11-05T20:17:00.081Z,8.52
2022-11-05T20:22:01.990Z,8.50
2022-11-05T20:27:03.864Z,8.48
2022-11-05T20:32:08.909Z,8.46
2022-11-05T20:37:10.717Z,8.44
2022-11-05T20:42:12.867Z,8.43
2022-11-05T20:47:14.681Z,8.42
2022-11-05T20:52:17.405Z,8.42
2022-11-05T20:57:19.743Z,8.42
2022-11-05T21:02:25.427Z,8.39
2022-11-05T21:07:27.448Z,8.38
2022-11-05T21:12:29.186Z,8.37
2022-11-05T21:17:30.993Z,8.37
2022-11-05T21:22:32.827Z,8.35
2022-11-05T21:27:37.951Z,8.30
2022-11-05T21:32:41.754Z,8.29
2022-11-05T21:37:43.572Z,8.28
2022-11-05T21:42:45.454Z,8.27
2022-11-05T21:47:50.607Z,8.25
2022-11-05T21:53:10.900Z,8.24
2022-11-05T21:58:34.074Z,8.23
2022-11-05T22:03:35.840Z,8.21
2022-11-05T22:08:37.614Z,8.20
2022-11-05T22:13:39.407Z,8.19
2022-11-05T22:18:41.147Z,8.17
2022-11-05T22:23:42.898Z,8.12
2022-11-05T22:28:44.707Z,8.10
2022-11-05T22:33:46.938Z,8.11
2022-11-05T22:38:48.785Z,8.09
2022-11-05T22:43:50.665Z,8.09
2022-11-05T22:48:53.464Z,8.09
2022-11-05T22:54:06.671Z,8.07
2022-11-05T22:59:13.133Z,8.08
2022-11-05T23:04:21.242Z,8.11
2022-11-05T23:09:48.789Z,8.12
2022-11-05T23:14:51.885Z,8.15
2022-11-05T23:20:12.354Z,8.16
2022-11-05T23:25:20.083Z,8.16
2022-11-05T23:30:24.986Z,8.14
2022-11-05T23:35:45.387Z,8.12
2022-11-05T23:41:05.664Z,8.11
2022-11-05T23:46:26.566Z,8.10
2022-11-05T23:52:24.287Z,8.10
2022-11-05T23:57:38.387Z,8.08
